createdAt,value
2022-09-05T00:00:27.694Z,85.64
2022-09-05T00:01:27.995Z,85.94
2022-09-05T00:02:27.744Z,85.84
2022-09-05T00:03:27.923Z,85.94
2022-09-05T00:04:27.769Z,86.04
2022-09-05T00:05:27.685Z,86.35
2022-09-05T00:06:27.626Z,86.44
2022-09-05T00:07:36.070Z,86.85
2022-09-05T00:08:28.617Z,86.95
2022-09-05T00:09:27.783Z,87.15
2022-09-05T00:10:27.587Z,87.15
2022-09-05T00:11:43.043Z,87.15
2022-09-05T00:12:28.558Z,87.40
2022-09-05T00:13:27.559Z,87.70
2022-09-05T00:14:34.196Z,87.40
2022-09-05T00:15:28.519Z,87.60
2022-09-05T00:16:30.370Z,87.70
2022-09-05T00:17:34.217Z,87.60
2022-09-05T00:22:21.677Z,87.60
2022-09-05T00:23:41.576Z,87.70
2022-09-05T00:24:20.641Z,87.90
2022-09-05T00:24:29.933Z,88.00
2022-09-05T00:24:31.032Z,87.80
2022-09-05T00:24:34.504Z,88.20
2022-09-05T00:24:54.742Z,88.00
2022-09-05T00:25:31.792Z,88.10
2022-09-05T00:26:28.715Z,88.10
2022-09-05T00:27:27.381Z,88.30
2022-09-05T00:28:27.393Z,88.70
2022-09-05T00:29:46.493Z,88.81
2022-09-05T00:31:08.795Z,89.21
2022-09-05T00:31:54.851Z,89.81
2022-09-05T00:32:28.388Z,90.01
2022-09-05T00:33:27.469Z,90.01
2022-09-05T00:34:27.325Z,90.01
2022-09-05T00:35:28.315Z,90.01
2022-09-05T00:36:27.293Z,90.01
2022-09-05T00:37:27.281Z,90.01
2022-09-05T00:38:30.489Z,90.11
2022-09-05T00:39:28.261Z,90.11
2022-09-05T00:40:27.420Z,90.01
2022-09-05T00:41:27.226Z,89.91
2022-09-05T00:42:27.217Z,89.81
2022-09-05T00:43:27.228Z,89.81
2022-09-05T00:44:27.208Z,89.81
2022-09-05T00:45:27.177Z,89.71
2022-09-05T00:46:27.221Z,89.71
2022-09-05T00:47:27.180Z,89.71
2022-09-05T00:48:27.149Z,89.71
2022-09-05T00:49:27.178Z,89.61
2022-09-05T00:50:27.169Z,89.51
2022-09-05T00:51:29.190Z,89.41
2022-09-05T00:52:28.113Z,89.31
2022-09-05T00:53:27.129Z,89.31
2022-09-05T00:54:41.187Z,89.21
2022-09-05T00:55:28.060Z,89.21
2022-09-05T00:56:27.072Z,89.21
2022-09-05T00:57:27.049Z,89.11
2022-09-05T00:58:27.054Z,89.01
2022-09-05T00:59:28.022Z,89.01
2022-09-05T01:00:27.011Z,88.95
2022-09-05T01:01:27.161Z,88.95
2022-09-05T01:02:27.035Z,88.85
2022-09-05T01:03:26.995Z,88.85
2022-09-05T01:04:26.971Z,88.85
2022-09-05T01:05:26.957Z,88.85
2022-09-05T01:06:26.942Z,88.85
2022-09-05T01:07:26.933Z,88.95
2022-09-05T01:08:26.925Z,89.05
2022-09-05T01:09:26.935Z,89.15
2022-09-05T01:10:26.901Z,89.05
2022-09-05T01:11:47.889Z,89.05
2022-09-05T01:12:26.875Z,89.09
2022-09-05T01:13:26.866Z,88.99
2022-09-05T01:14:26.874Z,88.89
2022-09-05T01:15:27.064Z,88.89
2022-09-05T01:16:27.963Z,88.79
2022-09-05T01:17:26.827Z,88.79
2022-09-05T01:18:26.828Z,88.68
2022-09-05T01:19:26.797Z,88.59
2022-09-05T01:20:26.800Z,88.63
2022-09-05T01:21:26.778Z,88.43
2022-09-05T01:22:26.767Z,88.32
2022-09-05T01:23:26.767Z,88.23
2022-09-05T01:24:28.088Z,88.12
2022-09-05T01:25:26.768Z,88.12
2022-09-05T01:26:26.739Z,88.06
2022-09-05T01:27:26.727Z,88.17
2022-09-05T01:29:15.862Z,88.26
2022-09-05T01:29:27.758Z,88.47
2022-09-05T01:30:31.800Z,88.67
2022-09-05T01:31:27.801Z,88.77
2022-09-05T01:32:26.660Z,88.87
2022-09-05T01:33:26.667Z,88.92
2022-09-05T01:34:31.882Z,89.01
2022-09-05T01:35:27.634Z,89.01
2022-09-05T01:36:26.620Z,89.12
2022-09-05T01:37:33.574Z,89.12
2022-09-05T01:38:27.612Z,89.22
2022-09-05T01:40:12.551Z,89.42
2022-09-05T01:40:27.633Z,89.62
2022-09-05T01:41:26.622Z,89.83
2022-09-05T01:42:26.543Z,89.83
2022-09-05T01:43:26.660Z,89.92
2022-09-05T01:44:26.526Z,89.97
2022-09-05T01:45:29.459Z,90.07
2022-09-05T01:46:27.531Z,90.17
2022-09-05T01:47:30.973Z,90.17
2022-09-05T01:48:26.807Z,90.17
2022-09-05T01:49:26.474Z,90.27
2022-09-05T01:50:26.454Z,90.27
2022-09-05T01:51:28.200Z,90.37
2022-09-05T01:52:26.464Z,90.47
2022-09-05T01:53:26.614Z,90.58
2022-09-05T01:54:29.873Z,90.58
2022-09-05T01:55:26.406Z,90.67
2022-09-05T01:56:26.431Z,90.88
2022-09-05T01:57:26.384Z,90.92
2022-09-05T01:58:26.399Z,91.12
2022-09-05T01:59:26.378Z,91.22
2022-09-05T02:00:26.347Z,91.42
2022-09-05T02:01:32.396Z,91.63
2022-09-05T02:02:27.372Z,91.83
2022-09-05T02:03:26.410Z,92.03
2022-09-05T02:04:26.319Z,92.44
2022-09-05T02:05:47.360Z,92.74
2022-09-05T02:06:27.330Z,93.04
2022-09-05T02:07:31.085Z,93.35
2022-09-05T02:08:27.289Z,93.65
2022-09-05T02:09:26.248Z,93.85
2022-09-05T02:10:26.240Z,93.85
2022-09-05T02:11:36.006Z,93.75
2022-09-05T02:12:27.219Z,93.75
2022-09-05T02:13:26.290Z,93.75
2022-09-05T02:14:33.728Z,93.75
2022-09-05T02:15:27.218Z,93.85
2022-09-05T02:16:26.193Z,94.01
2022-09-05T02:17:49.991Z,94.21
2022-09-05T02:18:27.161Z,94.11
2022-09-05T02:19:26.133Z,94.11
2022-09-05T02:20:26.136Z,94.21
2022-09-05T02:21:26.111Z,94.01
2022-09-05T02:22:26.103Z,94.01
2022-09-05T02:23:41.751Z,94.01
2022-09-05T02:24:27.103Z,94.11
2022-09-05T02:26:01.239Z,94.11
2022-09-05T02:26:27.064Z,94.11
2022-09-05T02:27:46.151Z,94.21
2022-09-05T02:28:27.085Z,94.21
2022-09-05T02:29:29.437Z,94.11
2022-09-05T02:30:26.028Z,94.11
2022-09-05T02:31:26.100Z,94.11
2022-09-05T02:32:25.996Z,93.96
2022-09-05T02:33:26.067Z,93.76
2022-09-05T02:34:25.978Z,93.66
2022-09-05T02:35:25.977Z,93.46
2022-09-05T02:36:25.956Z,93.36
2022-09-05T02:38:43.956Z,93.36
2022-09-05T02:44:00.176Z,93.36
2022-09-05T02:45:00.521Z,93.16
2022-09-05T02:45:08.516Z,93.05
2022-09-05T02:45:15.040Z,93.05
2022-09-05T02:45:18.725Z,92.96
2022-09-05T02:45:21.363Z,92.96
2022-09-05T02:45:23.920Z,92.85
2022-09-05T02:45:27.989Z,92.65
2022-09-05T02:46:25.876Z,92.55
2022-09-05T02:47:25.830Z,92.45
2022-09-05T02:48:25.840Z,92.35
2022-09-05T02:51:20.114Z,92.25
2022-09-05T02:56:08.239Z,92.09
2022-09-05T02:56:31.672Z,92.05
2022-09-05T02:57:32.899Z,92.09
2022-09-05T02:57:37.435Z,91.99
2022-09-05T02:57:38.561Z,91.99
2022-09-05T02:57:42.316Z,91.99
2022-09-05T02:57:46.493Z,91.99
2022-09-05T02:58:04.831Z,92.09
2022-09-05T02:58:26.730Z,92.09
2022-09-05T02:59:35.890Z,92.19
2022-09-05T03:00:26.682Z,92.19
2022-09-05T03:01:25.726Z,92.29
2022-09-05T03:02:26.971Z,92.29
2022-09-05T03:03:25.663Z,92.40
2022-09-05T03:04:25.672Z,92.40
2022-09-05T03:05:25.626Z,92.49
2022-09-05T03:06:34.642Z,92.49
2022-09-05T03:07:26.691Z,92.60
2022-09-05T03:08:25.664Z,92.60
2022-09-05T03:09:25.595Z,92.60
2022-09-05T03:10:34.619Z,92.49
2022-09-05T03:11:26.558Z,92.49
2022-09-05T03:12:29.347Z,92.49
2022-09-05T03:13:25.556Z,92.49
2022-09-05T03:14:25.541Z,92.49
2022-09-05T03:15:25.517Z,92.49
2022-09-05T03:16:25.540Z,92.40
2022-09-05T03:17:25.499Z,92.40
2022-09-05T03:18:25.487Z,92.40
2022-09-05T03:19:25.468Z,92.29
2022-09-05T03:20:25.468Z,92.40
2022-09-05T03:21:25.466Z,92.40
2022-09-05T03:22:25.451Z,92.40
2022-09-05T03:23:25.438Z,92.49
2022-09-05T03:24:26.417Z,92.80
2022-09-05T03:25:25.409Z,93.00
2022-09-05T03:26:25.399Z,93.30
2022-09-05T03:27:29.165Z,93.30
2022-09-05T03:28:25.501Z,93.20
2022-09-05T03:29:25.369Z,93.30
2022-09-05T03:30:25.370Z,93.51
2022-09-05T03:31:25.373Z,93.51
2022-09-05T03:32:25.341Z,93.51
2022-09-05T03:33:25.341Z,93.40
2022-09-05T03:34:25.313Z,93.40
2022-09-05T03:35:25.293Z,93.30
2022-09-05T03:36:25.293Z,93.40
2022-09-05T03:37:25.305Z,93.51
2022-09-05T03:38:25.328Z,93.60
2022-09-05T03:39:25.339Z,93.60
2022-09-05T03:40:25.253Z,93.65
2022-09-05T03:41:25.242Z,93.75
2022-09-05T03:42:30.417Z,93.95
2022-09-05T03:43:25.216Z,93.95
2022-09-05T03:44:25.205Z,93.85
2022-09-05T03:45:36.559Z,94.06
2022-09-05T03:46:26.302Z,94.15
2022-09-05T03:47:25.178Z,94.36
2022-09-05T03:48:28.673Z,94.36
2022-09-05T03:51:39.793Z,94.36
2022-09-05T03:54:10.598Z,94.56
2022-09-05T03:57:06.998Z,94.76
2022-09-05T03:57:15.964Z,94.76
2022-09-05T03:57:18.178Z,94.66
2022-09-05T03:57:19.944Z,94.86
2022-09-05T03:57:24.719Z,94.96
2022-09-05T03:57:25.424Z,94.86
2022-09-05T03:57:38.476Z,94.86
2022-09-05T03:58:42.013Z,94.86
2022-09-05T03:59:26.041Z,94.76
2022-09-05T04:00:25.029Z,94.76
2022-09-05T04:03:32.930Z,94.86
2022-09-05T04:08:07.002Z,94.86
2022-09-05T04:08:13.433Z,95.17
2022-09-05T04:08:15.054Z,94.96
2022-09-05T04:08:15.899Z,94.96
2022-09-05T04:08:17.180Z,94.96
2022-09-05T04:08:26.624Z,95.07
2022-09-05T04:08:38.637Z,95.07
2022-09-05T04:09:49.544Z,95.07
2022-09-05T04:10:25.976Z,95.27
2022-09-05T04:11:24.924Z,95.27
2022-09-05T04:12:24.940Z,95.37
2022-09-05T04:13:24.891Z,95.37
2022-09-05T04:14:24.890Z,95.37
2022-09-05T04:15:24.873Z,95.37
2022-09-05T04:16:24.901Z,95.37
2022-09-05T04:17:24.853Z,95.47
2022-09-05T04:18:28.497Z,95.57
2022-09-05T04:19:25.824Z,95.67
2022-09-05T04:20:24.816Z,95.78
2022-09-05T04:21:24.813Z,95.98
2022-09-05T04:22:24.798Z,95.98
2022-09-05T04:23:25.097Z,96.08
2022-09-05T04:24:24.773Z,96.08
2022-09-05T04:25:24.758Z,96.08
2022-09-05T04:26:24.768Z,96.08
2022-09-05T04:27:27.749Z,96.08
2022-09-05T04:28:24.852Z,96.08
2022-09-05T04:29:24.715Z,96.08
2022-09-05T04:30:38.937Z,95.98
2022-09-05T04:31:25.735Z,95.98
2022-09-05T04:32:24.738Z,95.98
2022-09-05T04:33:36.245Z,95.98
2022-09-05T04:34:25.663Z,95.98
2022-09-05T04:35:24.647Z,95.98
2022-09-05T04:36:24.636Z,96.18
2022-09-05T04:37:24.647Z,96.08
2022-09-05T04:38:24.666Z,96.08
2022-09-05T04:39:24.655Z,96.08
2022-09-05T04:40:24.590Z,96.08
2022-09-05T04:41:39.049Z,96.08
2022-09-05T04:42:25.579Z,96.08
2022-09-05T04:43:24.549Z,96.08
2022-09-05T04:44:24.550Z,96.08
2022-09-05T04:45:24.668Z,96.18
2022-09-05T04:46:24.614Z,96.18
2022-09-05T04:47:24.510Z,96.18
2022-09-05T04:48:24.765Z,96.18
2022-09-05T04:49:24.629Z,96.18
2022-09-05T04:50:24.492Z,96.18
2022-09-05T04:51:24.461Z,96.18
2022-09-05T04:52:31.106Z,96.08
2022-09-05T04:53:25.442Z,96.18
2022-09-05T04:54:24.446Z,96.08
2022-09-05T04:55:25.434Z,96.08
2022-09-05T04:56:24.422Z,96.18
2022-09-05T04:57:24.476Z,96.18
2022-09-05T04:58:53.486Z,96.18
2022-09-05T05:05:02.407Z,96.18
2022-09-05T05:06:00.969Z,96.03
2022-09-05T05:06:03.698Z,96.03
2022-09-05T05:06:13.504Z,96.08
2022-09-05T05:06:14.661Z,96.13
2022-09-05T05:06:16.274Z,96.03
2022-09-05T05:06:19.742Z,96.13
2022-09-05T05:06:38.084Z,96.13
2022-09-05T05:07:25.399Z,96.13
2022-09-05T05:08:37.819Z,96.13
2022-09-05T05:09:25.276Z,96.13
2022-09-05T05:11:51.100Z,96.13
2022-09-05T05:14:44.443Z,96.13
2022-09-05T05:17:56.049Z,96.13
2022-09-05T05:17:57.987Z,96.23
2022-09-05T05:18:00.667Z,96.13
2022-09-05T05:18:08.796Z,96.23
2022-09-05T05:18:11.658Z,96.23
2022-09-05T05:18:14.532Z,96.23
2022-09-05T05:18:49.183Z,96.34
2022-09-05T05:19:25.370Z,96.34
2022-09-05T05:20:42.840Z,96.34
2022-09-05T05:21:25.149Z,96.34
2022-09-05T05:22:24.140Z,96.34
2022-09-05T05:23:24.291Z,96.34
2022-09-05T05:24:24.111Z,96.34
2022-09-05T05:25:24.103Z,96.34
2022-09-05T05:26:24.082Z,96.29
2022-09-05T05:27:24.082Z,96.29
2022-09-05T05:28:25.183Z,96.29
2022-09-05T05:29:24.076Z,96.29
2022-09-05T05:30:24.082Z,96.19
2022-09-05T05:31:24.069Z,96.19
2022-09-05T05:32:25.529Z,96.09
2022-09-05T05:33:25.013Z,96.09
2022-09-05T05:34:25.098Z,96.09
2022-09-05T05:35:23.993Z,95.98
2022-09-05T05:36:23.982Z,95.89
2022-09-05T05:37:23.982Z,95.78
2022-09-05T05:38:23.991Z,95.78
2022-09-05T05:39:24.014Z,95.68
2022-09-05T05:40:23.935Z,95.68
2022-09-05T05:41:23.988Z,95.58
2022-09-05T05:42:23.905Z,95.48
2022-09-05T05:43:23.924Z,95.38
2022-09-05T05:44:23.887Z,95.28
2022-09-05T05:45:23.895Z,95.14
2022-09-05T05:46:23.923Z,95.03
2022-09-05T05:47:31.772Z,95.03
2022-09-05T05:48:25.034Z,94.93
2022-09-05T05:49:23.897Z,94.63
2022-09-05T05:50:23.841Z,94.53
2022-09-05T05:51:34.656Z,94.43
2022-09-05T05:52:24.807Z,94.32
2022-09-05T05:53:29.161Z,94.23
2022-09-05T05:54:24.778Z,94.12
2022-09-05T05:55:51.428Z,93.92
2022-09-05T05:56:24.768Z,93.82
2022-09-05T05:57:23.738Z,93.82
2022-09-05T05:58:23.788Z,93.68
2022-09-05T05:59:24.963Z,93.57
2022-09-05T06:00:27.399Z,93.37
2022-09-05T06:01:37.455Z,93.17
2022-09-05T06:02:24.783Z,92.97
2022-09-05T06:03:26.209Z,92.86
2022-09-05T06:04:23.701Z,92.86
2022-09-05T06:05:23.651Z,92.66
2022-09-05T06:06:23.657Z,92.66
2022-09-05T06:07:23.642Z,92.57
2022-09-05T06:10:55.283Z,92.32
2022-09-05T06:14:48.099Z,92.36
2022-09-05T06:14:52.895Z,92.22
2022-09-05T06:14:57.252Z,91.71
2022-09-05T06:15:01.461Z,91.91
2022-09-05T06:15:01.623Z,91.71
2022-09-05T06:15:01.763Z,92.12
2022-09-05T06:15:25.158Z,91.61
2022-09-05T06:16:23.622Z,91.61
2022-09-05T06:17:27.988Z,91.57
2022-09-05T06:18:24.516Z,91.47
2022-09-05T06:19:23.523Z,91.47
2022-09-05T06:21:56.135Z,91.17
2022-09-05T06:22:11.512Z,91.06
2022-09-05T06:22:24.484Z,90.82
2022-09-05T06:23:36.677Z,90.52
2022-09-05T06:24:24.446Z,90.22
2022-09-05T06:25:23.435Z,90.01
2022-09-05T06:26:23.477Z,89.71
2022-09-05T06:27:23.415Z,89.87
2022-09-05T06:28:23.408Z,89.47
2022-09-05T06:29:23.388Z,89.26
2022-09-05T06:30:23.378Z,89.32
2022-09-05T06:31:31.129Z,88.52
2022-09-05T06:32:24.379Z,87.37
2022-09-05T06:33:23.387Z,87.07
2022-09-05T06:34:35.551Z,86.83
2022-09-05T06:35:24.320Z,86.72
2022-09-05T06:36:23.317Z,85.88
2022-09-05T06:37:23.339Z,85.48
2022-09-05T06:38:23.292Z,85.24
2022-09-05T06:39:23.372Z,84.94
2022-09-05T06:40:23.498Z,84.69
2022-09-05T06:41:24.012Z,83.79
2022-09-05T06:42:28.505Z,83.65
2022-09-05T06:43:24.396Z,82.70
2022-09-05T06:44:23.946Z,82.17
2022-09-05T06:45:27.673Z,81.32
2022-09-05T06:47:22.856Z,80.82
2022-09-05T06:47:33.493Z,79.78
2022-09-05T06:48:38.274Z,78.84
2022-09-05T06:49:31.047Z,78.24
2022-09-05T06:50:27.828Z,77.70
2022-09-05T06:51:23.343Z,76.97
2022-09-05T06:52:29.711Z,76.37
2022-09-05T06:53:24.170Z,76.03
2022-09-05T06:54:23.120Z,75.39
2022-09-05T06:55:23.098Z,74.79
2022-09-05T06:56:26.252Z,73.66
2022-09-05T06:57:23.078Z,72.96
2022-09-05T06:58:23.090Z,73.02
2022-09-05T06:59:23.063Z,72.92
2022-09-05T07:00:23.106Z,72.59
2022-09-05T07:01:23.173Z,71.69
2022-09-05T07:02:23.877Z,71.69
2022-09-05T07:03:24.229Z,70.36
2022-09-05T07:05:05.239Z,70.19
2022-09-05T07:05:38.670Z,70.39
2022-09-05T07:06:23.982Z,70.39
2022-09-05T07:07:23.993Z,70.49
2022-09-05T07:08:36.167Z,70.89
2022-09-05T07:09:23.951Z,71.29
2022-09-05T07:10:37.873Z,71.49
2022-09-05T07:11:23.924Z,71.49
2022-09-05T07:12:22.954Z,71.15
2022-09-05T07:13:22.969Z,71.26
2022-09-05T07:14:22.906Z,71.36
2022-09-05T07:15:22.880Z,70.12
2022-09-05T07:16:35.664Z,69.13
2022-09-05T07:17:23.898Z,68.83
2022-09-05T07:18:22.848Z,68.63
2022-09-05T07:19:22.839Z,68.53
2022-09-05T07:20:22.911Z,68.83
2022-09-05T07:21:26.145Z,68.96
2022-09-05T07:22:47.631Z,69.46
2022-09-05T07:23:57.790Z,70.03
2022-09-05T07:24:53.433Z,70.23
2022-09-05T07:25:26.444Z,70.03
2022-09-05T07:26:51.498Z,69.59
2022-09-05T07:27:25.489Z,68.76
2022-09-05T07:28:28.582Z,68.33
2022-09-05T07:29:23.733Z,66.74
2022-09-05T07:30:22.732Z,66.50
2022-09-05T07:31:37.046Z,66.27
2022-09-05T07:32:24.677Z,64.95
2022-09-05T07:33:22.751Z,63.73
2022-09-05T07:34:22.694Z,63.40
2022-09-05T07:35:22.664Z,62.57
2022-09-05T07:36:22.656Z,62.05
2022-09-05T07:37:22.663Z,61.22
2022-09-05T07:38:22.637Z,60.60
2022-09-05T07:39:28.823Z,60.57
2022-09-05T07:40:25.168Z,60.24
2022-09-05T07:41:22.600Z,59.45
2022-09-05T07:42:22.607Z,58.63
2022-09-05T07:43:22.684Z,58.30
2022-09-05T07:44:22.606Z,57.68
2022-09-05T07:45:22.688Z,57.26
2022-09-05T07:46:22.598Z,57.65
2022-09-05T07:47:22.560Z,57.92
2022-09-05T07:48:22.530Z,57.20
2022-09-05T07:49:23.521Z,56.12
2022-09-05T07:53:16.717Z,55.60
2022-09-05T07:56:47.607Z,54.78
2022-09-05T07:56:58.452Z,54.68
2022-09-05T07:57:03.849Z,53.54
2022-09-05T07:57:10.577Z,54.85
2022-09-05T07:57:13.254Z,54.55
2022-09-05T07:57:15.618Z,54.88
2022-09-05T07:57:30.780Z,53.74
2022-09-05T07:58:23.426Z,53.02
2022-09-05T07:59:22.418Z,52.83
2022-09-05T08:00:25.479Z,52.61
2022-09-05T08:01:23.511Z,52.50
2022-09-05T08:02:22.399Z,52.19
2022-09-05T08:03:22.425Z,51.20
2022-09-05T08:04:22.459Z,51.50
2022-09-05T08:05:34.306Z,51.10
2022-09-05T08:07:34.756Z,52.06
2022-09-05T08:07:49.271Z,50.68
2022-09-05T08:08:23.322Z,50.49
2022-09-05T08:10:05.968Z,50.49
2022-09-05T08:10:30.903Z,50.66
2022-09-05T08:11:26.245Z,50.07
2022-09-05T08:12:28.078Z,49.26
2022-09-05T08:13:27.235Z,48.57
2022-09-05T08:14:44.297Z,48.27
2022-09-05T08:15:23.245Z,49.23
2022-09-05T08:16:22.267Z,48.45
2022-09-05T08:17:27.483Z,48.35
2022-09-05T08:18:23.228Z,47.93
2022-09-05T08:19:22.227Z,48.23
2022-09-05T08:20:22.208Z,47.74
2022-09-05T08:21:26.642Z,47.32
2022-09-05T08:22:23.183Z,47.13
2022-09-05T08:23:22.198Z,47.52
2022-09-05T08:24:22.166Z,46.73
2022-09-05T08:25:22.162Z,46.81
2022-09-05T08:26:22.141Z,47.00
2022-09-05T08:27:22.140Z,46.61
2022-09-05T08:28:22.171Z,46.41
2022-09-05T08:29:22.121Z,45.73
2022-09-05T08:30:26.130Z,45.41
2022-09-05T08:31:23.239Z,46.39
2022-09-05T08:32:22.093Z,45.80
2022-09-05T08:33:22.073Z,45.70
2022-09-05T08:34:24.780Z,46.10
2022-09-05T08:35:23.061Z,46.69
2022-09-05T08:36:22.036Z,46.30
2022-09-05T08:37:22.084Z,45.90
2022-09-05T08:38:22.017Z,46.20
2022-09-05T08:39:22.049Z,45.12
2022-09-05T08:40:22.062Z,45.61
2022-09-05T08:41:26.060Z,46.20
2022-09-05T08:42:23.001Z,45.90
2022-09-05T08:45:46.372Z,44.92
2022-09-05T08:46:35.435Z,44.73
2022-09-05T08:46:42.293Z,44.92
2022-09-05T08:46:44.402Z,45.70
2022-09-05T08:47:22.997Z,45.21
2022-09-05T08:48:21.931Z,44.33
2022-09-05T08:49:37.906Z,44.51
2022-09-05T08:50:26.800Z,44.31
2022-09-05T08:51:21.915Z,44.70
2022-09-05T08:52:21.905Z,45.09
2022-09-05T08:53:45.217Z,44.82
2022-09-05T08:54:22.866Z,44.70
2022-09-05T08:55:21.876Z,44.90
2022-09-05T08:56:21.857Z,44.80
2022-09-05T08:57:21.847Z,45.39
2022-09-05T08:58:21.934Z,44.70
2022-09-05T08:59:28.474Z,43.82
2022-09-05T09:00:24.941Z,44.02
2022-09-05T09:01:22.868Z,44.09
2022-09-05T09:02:47.590Z,44.29
2022-09-05T09:03:25.998Z,44.38
2022-09-05T09:04:26.717Z,44.09
2022-09-05T09:05:22.761Z,44.29
2022-09-05T09:06:21.774Z,43.70
2022-09-05T09:07:47.184Z,43.23
2022-09-05T09:08:22.740Z,44.02
2022-09-05T09:09:21.732Z,44.12
2022-09-05T09:10:25.630Z,44.41
2022-09-05T09:11:21.723Z,43.52
2022-09-05T09:12:21.715Z,42.74
2022-09-05T09:13:21.742Z,43.12
2022-09-05T09:14:30.510Z,42.72
2022-09-05T09:15:22.666Z,42.82
2022-09-05T09:16:21.720Z,43.31
2022-09-05T09:17:21.666Z,43.02
2022-09-05T09:18:21.657Z,43.99
2022-09-05T09:19:28.951Z,42.31
2022-09-05T09:20:22.628Z,42.60
2022-09-05T09:21:21.626Z,42.50
2022-09-05T09:22:21.648Z,42.31
2022-09-05T09:23:40.467Z,42.99
2022-09-05T09:24:22.580Z,42.60
2022-09-05T09:25:25.894Z,42.99
2022-09-05T09:26:24.612Z,42.99
2022-09-05T09:27:27.258Z,42.50
2022-09-05T09:28:47.394Z,42.21
2022-09-05T09:29:22.544Z,42.62
2022-09-05T09:30:21.531Z,43.05
2022-09-05T09:31:21.608Z,43.29
2022-09-05T09:32:21.543Z,45.62
2022-09-05T09:33:21.543Z,45.37
2022-09-05T09:34:22.494Z,46.47
2022-09-05T09:35:21.499Z,46.59
2022-09-05T09:36:21.475Z,46.62
2022-09-05T09:37:24.189Z,48.69
2022-09-05T09:38:22.514Z,46.81
2022-09-05T09:39:37.400Z,46.81
2022-09-05T09:40:22.533Z,46.91
2022-09-05T09:41:21.437Z,47.41
2022-09-05T09:42:33.221Z,48.00
2022-09-05T09:43:22.431Z,46.81
2022-09-05T09:44:21.409Z,45.83
2022-09-05T09:45:28.015Z,45.73
2022-09-05T09:46:22.439Z,47.23
2022-09-05T09:47:21.389Z,47.33
2022-09-05T09:48:21.444Z,44.87
2022-09-05T09:49:23.157Z,45.26
2022-09-05T09:50:21.353Z,44.37
2022-09-05T09:51:21.351Z,45.36
2022-09-05T09:52:21.474Z,44.76
2022-09-05T09:53:21.333Z,47.03
2022-09-05T09:54:21.351Z,45.06
2022-09-05T09:55:21.609Z,45.53
2022-09-05T09:56:21.321Z,44.74
2022-09-05T09:57:21.305Z,42.87
2022-09-05T09:58:22.497Z,43.46
2022-09-05T09:59:21.276Z,43.56
2022-09-05T10:00:21.269Z,43.74
2022-09-05T10:01:36.569Z,42.14
2022-09-05T10:05:18.246Z,42.34
2022-09-05T10:07:54.558Z,41.25
2022-09-05T10:10:35.548Z,42.02
2022-09-05T10:10:40.491Z,39.76
2022-09-05T10:10:46.659Z,42.24
2022-09-05T10:10:49.905Z,39.18
2022-09-05T10:10:54.004Z,41.86
2022-09-05T10:11:09.181Z,39.76
2022-09-05T10:11:09.669Z,41.57
2022-09-05T10:11:48.537Z,42.77
2022-09-05T10:12:22.282Z,45.24
2022-09-05T10:13:21.227Z,41.27
2022-09-05T10:14:33.833Z,41.86
2022-09-05T10:15:31.694Z,41.65
2022-09-05T10:16:22.182Z,40.86
2022-09-05T10:17:21.148Z,41.45
2022-09-05T10:18:24.042Z,40.96
2022-09-05T10:20:07.901Z,41.65
2022-09-05T10:20:26.105Z,41.06
2022-09-05T10:21:22.069Z,40.69
2022-09-05T10:22:37.399Z,41.27
2022-09-05T10:23:22.523Z,41.67
2022-09-05T10:24:21.049Z,41.94
2022-09-05T10:25:21.065Z,41.16
2022-09-05T10:26:21.037Z,39.87
2022-09-05T10:27:21.021Z,39.78
2022-09-05T10:28:21.040Z,39.58
2022-09-05T10:29:36.891Z,41.16
2022-09-05T10:30:26.654Z,40.74
2022-09-05T10:33:03.806Z,40.74
2022-09-05T10:35:09.967Z,39.47
2022-09-05T10:35:10.122Z,40.33
2022-09-05T10:35:13.893Z,40.62
2022-09-05T10:35:23.926Z,40.31
2022-09-05T10:36:20.982Z,39.13
2022-09-05T10:37:20.935Z,39.23
2022-09-05T10:38:20.953Z,38.46
2022-09-05T10:39:21.216Z,39.05
2022-09-05T10:40:20.929Z,39.47
2022-09-05T10:41:22.924Z,39.47
2022-09-05T10:42:20.894Z,39.17
2022-09-05T10:43:20.979Z,40.16
2022-09-05T10:44:20.899Z,40.23
2022-09-05T10:45:34.286Z,41.69
2022-09-05T10:46:47.002Z,40.29
2022-09-05T10:47:21.932Z,39.39
2022-09-05T10:48:20.845Z,37.40
2022-09-05T10:49:20.849Z,36.80
2022-09-05T10:50:20.842Z,38.37
2022-09-05T10:51:27.146Z,37.07
2022-09-05T10:52:21.838Z,35.42
2022-09-05T10:53:20.870Z,36.21
2022-09-05T10:54:20.803Z,36.24
2022-09-05T10:55:20.789Z,38.01
2022-09-05T10:56:20.781Z,37.84
2022-09-05T10:57:20.761Z,37.46
2022-09-05T10:58:26.786Z,37.28
2022-09-05T11:00:36.822Z,38.46
2022-09-05T11:02:20.275Z,37.76
2022-09-05T11:02:29.727Z,38.03
2022-09-05T11:02:34.722Z,37.36
2022-09-05T11:03:22.993Z,38.54
2022-09-05T11:04:20.813Z,36.97
2022-09-05T11:05:20.764Z,37.77
2022-09-05T11:06:24.635Z,39.05
2022-09-05T11:07:27.938Z,37.89
2022-09-05T11:08:21.675Z,39.48
2022-09-05T11:09:20.678Z,39.20
2022-09-05T11:10:20.665Z,38.42
2022-09-05T11:11:28.358Z,38.73
2022-09-05T11:12:21.638Z,39.84
2022-09-05T11:13:20.683Z,40.33
2022-09-05T11:14:26.932Z,39.25
2022-09-05T11:15:21.626Z,38.06
2022-09-05T11:16:20.867Z,37.65
2022-09-05T11:17:20.599Z,38.32
2022-09-05T11:18:20.589Z,37.12
2022-09-05T11:19:21.599Z,36.92
2022-09-05T11:20:34.973Z,37.41
2022-09-05T11:21:21.559Z,39.09
2022-09-05T11:22:23.946Z,37.89
2022-09-05T11:23:20.578Z,38.18
2022-09-05T11:24:24.231Z,39.15
2022-09-05T11:25:28.218Z,36.57
2022-09-05T11:26:21.558Z,36.77
2022-09-05T11:27:25.494Z,37.48
2022-09-05T11:28:21.496Z,36.69
2022-09-05T11:29:20.524Z,36.00
2022-09-05T11:30:28.418Z,36.30
2022-09-05T11:31:21.653Z,37.18
2022-09-05T11:36:03.967Z,36.40
2022-09-05T11:39:46.768Z,36.51
2022-09-05T11:39:47.232Z,37.89
2022-09-05T11:39:59.173Z,36.88
2022-09-05T11:39:59.544Z,36.32
2022-09-05T11:40:07.349Z,36.10
2022-09-05T11:40:07.647Z,37.89
2022-09-05T11:40:09.610Z,37.40
2022-09-05T11:40:24.956Z,36.88
2022-09-05T11:41:21.967Z,37.08
2022-09-05T11:42:20.378Z,37.97
2022-09-05T11:43:20.381Z,36.97
2022-09-05T11:44:25.676Z,36.97
2022-09-05T11:45:21.360Z,37.95
2022-09-05T11:46:20.410Z,38.54
2022-09-05T11:47:30.059Z,36.38
2022-09-05T11:48:21.381Z,38.05
2022-09-05T11:49:20.335Z,36.65
2022-09-05T11:50:20.320Z,35.67
2022-09-05T11:51:20.314Z,35.38
2022-09-05T11:52:21.295Z,37.62
2022-09-05T11:53:20.294Z,35.82
2022-09-05T11:54:20.304Z,35.64
2022-09-05T11:55:21.252Z,35.64
2022-09-05T11:56:20.274Z,35.14
2022-09-05T11:57:33.330Z,35.14
2022-09-05T11:58:45.365Z,35.14
2022-09-05T11:59:33.275Z,36.03
2022-09-05T12:00:31.666Z,34.36
2022-09-05T12:01:42.283Z,36.22
2022-09-05T12:02:24.038Z,35.74
2022-09-05T12:03:57.729Z,34.83
2022-09-05T12:04:21.237Z,33.87
2022-09-05T12:05:49.971Z,34.18
2022-09-05T12:06:21.273Z,35.77
2022-09-05T12:07:31.599Z,35.57
2022-09-05T12:08:21.268Z,36.08
2022-09-05T12:09:24.450Z,35.99
2022-09-05T12:10:46.074Z,36.47
2022-09-05T12:11:21.149Z,36.08
2022-09-05T12:12:39.402Z,36.57
2022-09-05T12:13:21.745Z,35.78
2022-09-05T12:14:25.470Z,36.08
2022-09-05T12:15:21.111Z,36.57
2022-09-05T12:16:20.162Z,35.87
2022-09-05T12:17:21.101Z,34.67
2022-09-05T12:18:21.600Z,35.18
2022-09-05T12:19:20.218Z,35.67
2022-09-05T12:20:22.256Z,35.69
2022-09-05T12:21:20.133Z,37.76
2022-09-05T12:22:23.821Z,36.57
2022-09-05T12:23:39.945Z,35.99
2022-09-05T12:25:15.853Z,35.49
2022-09-05T12:27:36.722Z,35.41
2022-09-05T12:27:41.872Z,35.94
2022-09-05T12:27:42.869Z,36.11
2022-09-05T12:29:26.195Z,36.04
2022-09-05T12:29:29.406Z,36.72
2022-09-05T12:30:20.996Z,37.89
2022-09-05T12:32:59.461Z,35.87
2022-09-05T12:36:02.389Z,35.46
2022-09-05T12:36:08.152Z,35.34
2022-09-05T12:40:43.289Z,34.56
2022-09-05T12:40:45.164Z,34.67
2022-09-05T12:40:54.159Z,35.55
2022-09-05T12:40:57.747Z,35.03
2022-09-05T12:41:36.612Z,34.33
2022-09-05T12:41:43.499Z,35.31
2022-09-05T12:42:08.242Z,34.06
2022-09-05T12:42:10.154Z,35.51
2022-09-05T12:42:25.969Z,33.85
2022-09-05T12:44:39.059Z,33.56
2022-09-05T12:44:39.737Z,33.67
2022-09-05T12:45:25.449Z,34.28
2022-09-05T12:46:24.185Z,35.24
2022-09-05T12:47:21.264Z,35.74
2022-09-05T12:48:19.869Z,33.97
2022-09-05T12:49:19.833Z,34.87
2022-09-05T12:50:19.846Z,35.16
2022-09-05T12:51:46.396Z,34.87
2022-09-05T12:52:20.805Z,35.64